createdAt,value
2019-03-15T00:00:44.198Z,976.41
2019-03-15T00:01:44.138Z,976.40
2019-03-15T00:02:44.080Z,976.49
2019-03-15T00:03:44.020Z,976.50
2019-03-15T00:04:43.960Z,976.52
2019-03-15T00:05:43.899Z,976.53
2019-03-15T00:06:43.841Z,976.52
2019-03-15T00:07:43.782Z,976.53
2019-03-15T00:08:43.722Z,976.53
2019-03-15T00:09:43.660Z,976.52
2019-03-15T00:10:43.603Z,976.52
2019-03-15T00:11:43.543Z,976.60
2019-03-15T00:12:43.480Z,976.60
2019-03-15T00:13:43.422Z,976.64
2019-03-15T00:14:43.363Z,976.60
2019-03-15T00:15:43.303Z,976.72
2019-03-15T00:16:43.244Z,976.73
2019-03-15T00:17:43.272Z,976.72
2019-03-15T00:18:43.123Z,976.72
2019-03-15T00:19:43.064Z,976.79
2019-03-15T00:20:43.003Z,976.74
2019-03-15T00:21:42.946Z,976.81
2019-03-15T00:22:42.884Z,976.79
2019-03-15T00:23:42.824Z,976.85
2019-03-15T00:24:42.766Z,976.84
2019-03-15T00:25:42.706Z,976.93
2019-03-15T00:26:42.645Z,976.97
2019-03-15T00:27:42.585Z,976.97
2019-03-15T00:28:42.524Z,976.96
2019-03-15T00:29:42.465Z,976.99
2019-03-15T00:30:42.788Z,976.97
2019-03-15T00:31:42.349Z,977.00
2019-03-15T00:32:42.286Z,977.03
2019-03-15T00:33:42.227Z,977.04
2019-03-15T00:34:42.673Z,976.98
2019-03-15T00:35:42.107Z,977.02
2019-03-15T00:36:42.047Z,976.97
2019-03-15T00:37:41.988Z,976.97
2019-03-15T00:38:41.933Z,976.97
2019-03-15T00:39:41.869Z,976.97
2019-03-15T00:40:42.675Z,976.97
2019-03-15T00:41:41.748Z,976.97
2019-03-15T00:42:41.687Z,976.97
2019-03-15T00:43:41.629Z,976.96
2019-03-15T00:44:41.571Z,976.93
2019-03-15T00:45:41.518Z,976.96
2019-03-15T00:46:41.451Z,976.99
2019-03-15T00:47:41.389Z,976.94
2019-03-15T00:48:41.390Z,977.01
2019-03-15T00:49:41.270Z,976.98
2019-03-15T00:50:41.214Z,977.06
2019-03-15T00:51:41.151Z,977.03
2019-03-15T00:52:41.090Z,977.04
2019-03-15T00:53:41.118Z,977.04
2019-03-15T00:54:40.972Z,977.05
2019-03-15T00:55:40.911Z,977.05
2019-03-15T00:56:40.851Z,977.00
2019-03-15T00:57:40.791Z,977.01
2019-03-15T00:58:40.733Z,977.08
2019-03-15T00:59:40.674Z,977.04
2019-03-15T01:00:40.611Z,977.02
2019-03-15T01:01:40.555Z,977.01
2019-03-15T01:02:40.492Z,977.02
2019-03-15T01:03:40.435Z,977.02
2019-03-15T01:04:40.391Z,977.03
2019-03-15T01:05:40.313Z,976.96
2019-03-15T01:06:40.254Z,977.01
2019-03-15T01:07:40.194Z,976.99
2019-03-15T01:08:40.133Z,976.98
2019-03-15T01:09:40.073Z,976.97
2019-03-15T01:10:40.014Z,976.96
2019-03-15T01:11:39.955Z,977.01
2019-03-15T01:12:39.895Z,977.04
2019-03-15T01:13:39.836Z,977.05
2019-03-15T01:14:39.775Z,977.09
2019-03-15T01:15:39.715Z,977.10
2019-03-15T01:16:39.654Z,977.09
2019-03-15T01:17:39.597Z,977.11
2019-03-15T01:18:39.535Z,977.08
2019-03-15T01:19:39.480Z,977.11
2019-03-15T01:20:39.416Z,977.04
2019-03-15T01:21:39.357Z,977.05
2019-03-15T01:22:39.297Z,977.08
2019-03-15T01:23:39.245Z,977.04
2019-03-15T01:24:39.176Z,977.07
2019-03-15T01:25:39.119Z,977.10
2019-03-15T01:26:39.057Z,977.07
2019-03-15T01:27:38.999Z,977.09
2019-03-15T01:28:38.938Z,977.13
2019-03-15T01:29:38.879Z,977.15
2019-03-15T01:30:38.820Z,977.14
2019-03-15T01:31:38.758Z,977.15
2019-03-15T01:32:38.699Z,977.22
2019-03-15T01:33:38.639Z,977.24
2019-03-15T01:34:38.579Z,977.28
2019-03-15T01:35:38.530Z,977.22
2019-03-15T01:36:38.459Z,977.22
2019-03-15T01:37:38.399Z,977.16
2019-03-15T01:38:38.342Z,977.22
2019-03-15T01:39:38.280Z,977.19
2019-03-15T01:40:38.950Z,977.18
2019-03-15T01:41:38.161Z,977.22
2019-03-15T01:42:38.103Z,977.24
2019-03-15T01:43:38.462Z,977.25
2019-03-15T01:44:37.980Z,977.29
2019-03-15T01:45:37.922Z,977.34
2019-03-15T01:46:37.862Z,977.33
2019-03-15T01:47:37.801Z,977.32
2019-03-15T01:48:37.740Z,977.27
2019-03-15T01:49:37.682Z,977.31
2019-03-15T01:50:37.622Z,977.33
2019-03-15T01:51:37.589Z,977.31
2019-03-15T01:52:37.502Z,977.41
2019-03-15T01:53:37.446Z,977.38
2019-03-15T01:54:37.383Z,977.39
2019-03-15T01:55:37.324Z,977.40
2019-03-15T01:56:37.262Z,977.36
2019-03-15T01:57:37.203Z,977.34
2019-03-15T01:58:37.144Z,977.28
2019-03-15T01:59:37.085Z,977.27
2019-03-15T02:00:37.025Z,977.32
2019-03-15T02:01:36.965Z,977.32
2019-03-15T02:02:36.913Z,977.34
2019-03-15T02:03:36.850Z,977.33
2019-03-15T02:04:36.785Z,977.28
2019-03-15T02:05:36.726Z,977.35
2019-03-15T02:06:36.666Z,977.32
2019-03-15T02:07:36.610Z,977.31
2019-03-15T02:08:36.554Z,977.35
2019-03-15T02:09:36.486Z,977.28
2019-03-15T02:10:37.462Z,977.30
2019-03-15T02:11:36.366Z,977.27
2019-03-15T02:12:36.307Z,977.36
2019-03-15T02:13:36.247Z,977.34
2019-03-15T02:14:36.188Z,977.39
2019-03-15T02:15:36.174Z,977.38
2019-03-15T02:16:36.083Z,977.36
2019-03-15T02:17:36.008Z,977.34
2019-03-15T02:18:35.958Z,977.30
2019-03-15T02:19:35.890Z,977.33
2019-03-15T02:20:35.829Z,977.33
2019-03-15T02:21:35.774Z,977.29
2019-03-15T02:22:35.713Z,977.26
2019-03-15T02:23:35.651Z,977.31
2019-03-15T02:24:35.588Z,977.36
2019-03-15T02:25:35.531Z,977.33
2019-03-15T02:26:35.539Z,977.34
2019-03-15T02:27:35.409Z,977.38
2019-03-15T02:28:35.349Z,977.46
2019-03-15T02:29:35.290Z,977.40
2019-03-15T02:30:35.241Z,977.36
2019-03-15T02:31:35.171Z,977.40
2019-03-15T02:32:35.273Z,977.36
2019-03-15T02:33:35.053Z,977.35
2019-03-15T02:34:34.991Z,977.33
2019-03-15T02:35:34.932Z,977.26
2019-03-15T02:36:34.872Z,977.28
2019-03-15T02:37:34.836Z,977.21
2019-03-15T02:38:34.751Z,977.21
2019-03-15T02:39:34.692Z,977.19
2019-03-15T02:40:34.632Z,977.13
2019-03-15T02:41:34.573Z,977.18
2019-03-15T02:42:34.514Z,977.14
2019-03-15T02:43:34.454Z,977.10
2019-03-15T02:44:34.441Z,977.10
2019-03-15T02:45:34.333Z,977.07
2019-03-15T02:46:34.275Z,977.07
2019-03-15T02:47:34.215Z,977.01
2019-03-15T02:48:34.157Z,977.02
2019-03-15T02:49:34.859Z,977.01
2019-03-15T02:50:34.034Z,976.99
2019-03-15T02:51:33.980Z,976.95
2019-03-15T02:52:33.934Z,976.95
2019-03-15T02:53:34.853Z,976.95
2019-03-15T02:54:33.810Z,976.99
2019-03-15T02:55:33.743Z,976.99
2019-03-15T02:56:33.675Z,976.98
2019-03-15T02:57:35.282Z,976.93
2019-03-15T02:58:33.555Z,976.98
2019-03-15T02:59:33.516Z,976.99
2019-03-15T03:00:33.437Z,976.95
2019-03-15T03:01:33.939Z,977.00
2019-03-15T03:02:33.317Z,976.98
2019-03-15T03:03:33.257Z,977.04
2019-03-15T03:04:33.198Z,976.98
2019-03-15T03:05:34.363Z,976.99
2019-03-15T03:06:33.080Z,977.02
2019-03-15T03:07:33.022Z,977.04
2019-03-15T03:08:32.958Z,977.01
2019-03-15T03:09:34.176Z,977.02
2019-03-15T03:10:32.840Z,977.01
2019-03-15T03:11:32.779Z,977.06
2019-03-15T03:12:32.717Z,977.00
2019-03-15T03:13:32.661Z,977.00
2019-03-15T03:14:32.600Z,977.03
2019-03-15T03:15:32.539Z,977.02
2019-03-15T03:16:32.479Z,976.98
2019-03-15T03:17:32.420Z,977.01
2019-03-15T03:18:32.360Z,977.05
2019-03-15T03:19:32.303Z,976.99
2019-03-15T03:20:32.241Z,977.04
2019-03-15T03:21:32.181Z,977.00
2019-03-15T03:22:32.126Z,977.08
2019-03-15T03:23:32.172Z,977.06
2019-03-15T03:24:32.007Z,977.12
2019-03-15T03:25:31.942Z,977.16
2019-03-15T03:26:31.880Z,977.15
2019-03-15T03:27:31.839Z,977.15
2019-03-15T03:28:31.933Z,977.20
2019-03-15T03:29:31.704Z,977.17
2019-03-15T03:30:31.645Z,977.20
2019-03-15T03:31:31.586Z,977.25
2019-03-15T03:32:31.525Z,977.16
2019-03-15T03:33:31.463Z,977.19
2019-03-15T03:34:31.425Z,977.18
2019-03-15T03:35:31.344Z,977.22
2019-03-15T03:36:31.285Z,977.19
2019-03-15T03:37:31.224Z,977.18
2019-03-15T03:38:31.165Z,977.16
2019-03-15T03:39:31.116Z,977.16
2019-03-15T03:40:31.044Z,977.11
2019-03-15T03:41:30.985Z,977.14
2019-03-15T03:42:30.924Z,977.16
2019-03-15T03:43:30.891Z,977.13
2019-03-15T03:44:30.807Z,977.19
2019-03-15T03:45:30.747Z,977.22
2019-03-15T03:46:30.689Z,977.23
2019-03-15T03:47:32.738Z,977.19
2019-03-15T03:48:30.565Z,977.20
2019-03-15T03:49:30.505Z,977.21
2019-03-15T03:50:30.452Z,977.22
2019-03-15T03:51:30.386Z,977.22
2019-03-15T03:52:30.326Z,977.25
2019-03-15T03:53:30.267Z,977.27
2019-03-15T03:54:30.534Z,977.27
2019-03-15T03:55:30.148Z,977.28
2019-03-15T03:56:30.087Z,977.34
2019-03-15T03:57:30.027Z,977.32
2019-03-15T03:58:29.970Z,977.34
2019-03-15T03:59:29.911Z,977.42
2019-03-15T04:00:29.851Z,977.39
2019-03-15T04:01:29.788Z,977.38
2019-03-15T04:02:32.796Z,977.40
2019-03-15T04:03:29.669Z,977.39
2019-03-15T04:04:29.609Z,977.44
2019-03-15T04:05:29.551Z,977.44
2019-03-15T04:06:29.490Z,977.44
2019-03-15T04:07:29.429Z,977.44
2019-03-15T04:08:29.370Z,977.39
2019-03-15T04:09:29.316Z,977.38
2019-03-15T04:10:29.250Z,977.41
2019-03-15T04:11:29.190Z,977.42
2019-03-15T04:12:29.146Z,977.34
2019-03-15T04:13:29.071Z,977.33
2019-03-15T04:14:29.011Z,977.39
2019-03-15T04:15:28.950Z,977.45
2019-03-15T04:16:28.893Z,977.46
2019-03-15T04:17:28.830Z,977.40
2019-03-15T04:18:28.771Z,977.46
2019-03-15T04:19:28.763Z,977.46
2019-03-15T04:20:28.650Z,977.49
2019-03-15T04:21:28.591Z,977.44
2019-03-15T04:22:28.532Z,977.48
2019-03-15T04:23:28.472Z,977.40
2019-03-15T04:24:28.414Z,977.41
2019-03-15T04:25:28.351Z,977.42
2019-03-15T04:26:28.300Z,977.46
2019-03-15T04:27:28.232Z,977.51
2019-03-15T04:28:28.179Z,977.52
2019-03-15T04:29:28.280Z,977.55
2019-03-15T04:30:28.052Z,977.63
2019-03-15T04:31:28.086Z,977.63
2019-03-15T04:32:28.007Z,977.63
2019-03-15T04:33:27.887Z,977.64
2019-03-15T04:34:28.545Z,977.60
2019-03-15T04:35:27.753Z,977.56
2019-03-15T04:36:27.696Z,977.59
2019-03-15T04:37:27.637Z,977.58
2019-03-15T04:38:27.575Z,977.69
2019-03-15T04:39:27.515Z,977.67
2019-03-15T04:40:27.453Z,977.63
2019-03-15T04:41:27.394Z,977.63
2019-03-15T04:42:27.438Z,977.66
2019-03-15T04:43:27.279Z,977.56
2019-03-15T04:44:27.216Z,977.66
2019-03-15T04:45:27.902Z,977.65
2019-03-15T04:46:27.181Z,977.69
2019-03-15T04:47:27.052Z,977.67
2019-03-15T04:48:26.982Z,977.68
2019-03-15T04:49:26.924Z,977.68
2019-03-15T04:50:26.856Z,977.65
2019-03-15T04:51:26.798Z,977.65
2019-03-15T04:52:26.754Z,977.60
2019-03-15T04:53:26.675Z,977.65
2019-03-15T04:54:26.622Z,977.75
2019-03-15T04:55:26.564Z,977.69
2019-03-15T04:56:26.497Z,977.71
2019-03-15T04:57:26.437Z,977.67
2019-03-15T04:58:26.377Z,977.64
2019-03-15T04:59:26.317Z,977.60
2019-03-15T05:00:26.257Z,977.60
2019-03-15T05:01:26.199Z,977.59
2019-03-15T05:02:26.140Z,977.57
2019-03-15T05:03:36.602Z,977.62
2019-03-15T05:04:26.030Z,977.60
2019-03-15T05:05:25.958Z,977.57
2019-03-15T05:06:25.898Z,977.54
2019-03-15T05:07:25.840Z,977.59
2019-03-15T05:08:25.779Z,977.56
2019-03-15T05:09:25.718Z,977.55
2019-03-15T05:10:25.667Z,977.57
2019-03-15T05:11:25.599Z,977.59
2019-03-15T05:12:25.542Z,977.53
2019-03-15T05:13:40.117Z,977.54
2019-03-15T05:14:25.426Z,977.53
2019-03-15T05:15:25.363Z,977.52
2019-03-15T05:16:25.300Z,977.48
2019-03-15T05:17:25.285Z,977.44
2019-03-15T05:18:25.181Z,977.44
2019-03-15T05:19:25.123Z,977.46
2019-03-15T05:20:25.063Z,977.41
2019-03-15T05:21:25.002Z,977.43
2019-03-15T05:22:24.942Z,977.46
2019-03-15T05:23:24.881Z,977.47
2019-03-15T05:24:24.820Z,977.48
2019-03-15T05:25:24.761Z,977.38
2019-03-15T05:26:24.703Z,977.36
2019-03-15T05:27:24.642Z,977.45
2019-03-15T05:28:24.629Z,977.40
2019-03-15T05:29:24.522Z,977.47
2019-03-15T05:30:24.465Z,977.39
2019-03-15T05:31:24.405Z,977.39
2019-03-15T05:32:24.345Z,977.35
2019-03-15T05:33:24.287Z,977.40
2019-03-15T05:34:24.223Z,977.34
2019-03-15T05:35:24.163Z,977.35
2019-03-15T05:36:24.102Z,977.35
2019-03-15T05:37:24.043Z,977.38
2019-03-15T05:38:23.984Z,977.37
2019-03-15T05:39:23.924Z,977.31
2019-03-15T05:40:23.866Z,977.26
2019-03-15T05:41:23.803Z,977.25
2019-03-15T05:42:23.743Z,977.29
2019-03-15T05:43:23.686Z,977.28
2019-03-15T05:44:23.623Z,977.23
2019-03-15T05:45:23.565Z,977.29
2019-03-15T05:46:23.510Z,977.27
2019-03-15T05:47:24.122Z,977.26
2019-03-15T05:48:23.383Z,977.23
2019-03-15T05:49:23.325Z,977.22
2019-03-15T05:50:23.267Z,977.28
2019-03-15T05:51:23.205Z,977.24
2019-03-15T05:52:23.144Z,977.25
2019-03-15T05:53:23.089Z,977.18
2019-03-15T05:54:23.027Z,977.23
2019-03-15T05:55:22.968Z,977.21
2019-03-15T05:56:22.908Z,977.29
2019-03-15T05:57:22.846Z,977.28
2019-03-15T05:58:22.914Z,977.23
2019-03-15T05:59:22.726Z,977.25
2019-03-15T06:00:22.671Z,977.23
2019-03-15T06:01:22.607Z,977.26
2019-03-15T06:02:22.547Z,977.33
2019-03-15T06:03:22.486Z,977.31
2019-03-15T06:04:22.430Z,977.32
2019-03-15T06:05:22.366Z,977.29
2019-03-15T06:06:22.309Z,977.31
2019-03-15T06:07:22.250Z,977.32
2019-03-15T06:08:22.186Z,977.37
2019-03-15T06:09:22.127Z,977.40
2019-03-15T06:10:22.069Z,977.43
2019-03-15T06:11:22.008Z,977.42
2019-03-15T06:12:21.949Z,977.48
2019-03-15T06:13:21.891Z,977.45
2019-03-15T06:14:21.829Z,977.47
2019-03-15T06:15:21.773Z,977.47
2019-03-15T06:16:21.711Z,977.51
2019-03-15T06:17:21.651Z,977.48
2019-03-15T06:18:21.590Z,977.51
2019-03-15T06:19:21.531Z,977.54
2019-03-15T06:20:21.469Z,977.50
2019-03-15T06:21:21.409Z,977.53
2019-03-15T06:22:21.349Z,977.56
2019-03-15T06:23:21.290Z,977.53
2019-03-15T06:24:21.230Z,977.56
2019-03-15T06:25:21.172Z,977.53
2019-03-15T06:26:21.113Z,977.50
2019-03-15T06:27:21.057Z,977.55
2019-03-15T06:28:20.997Z,977.57
2019-03-15T06:29:20.931Z,977.59
2019-03-15T06:30:20.872Z,977.60
2019-03-15T06:31:20.813Z,977.59
2019-03-15T06:32:20.751Z,977.58
2019-03-15T06:33:20.690Z,977.59
2019-03-15T06:34:20.632Z,977.59
2019-03-15T06:35:20.613Z,977.63
2019-03-15T06:36:20.510Z,977.61
2019-03-15T06:37:20.455Z,977.65
2019-03-15T06:38:20.403Z,977.73
2019-03-15T06:39:20.332Z,977.71
2019-03-15T06:40:20.272Z,977.68
2019-03-15T06:41:20.212Z,977.67
2019-03-15T06:42:20.152Z,977.72
2019-03-15T06:43:20.092Z,977.68
2019-03-15T06:44:20.032Z,977.81
2019-03-15T06:45:19.974Z,977.74
2019-03-15T06:46:19.912Z,977.69
2019-03-15T06:47:19.853Z,977.68
2019-03-15T06:48:19.792Z,977.69
2019-03-15T06:49:21.055Z,977.79
2019-03-15T06:50:19.674Z,977.70
2019-03-15T06:51:19.618Z,977.73
2019-03-15T06:52:19.554Z,977.66
2019-03-15T06:53:19.494Z,977.72
2019-03-15T06:54:19.434Z,977.79
2019-03-15T06:55:19.375Z,977.79
2019-03-15T06:56:19.315Z,977.73
2019-03-15T06:57:19.253Z,977.76
2019-03-15T06:58:19.194Z,977.82
2019-03-15T06:59:19.137Z,977.74
2019-03-15T07:00:19.075Z,977.83
2019-03-15T07:01:19.016Z,977.84
2019-03-15T07:02:19.588Z,977.80
2019-03-15T07:03:18.895Z,977.85
2019-03-15T07:04:18.834Z,977.89
2019-03-15T07:05:18.775Z,977.91
2019-03-15T07:06:18.716Z,977.88
2019-03-15T07:07:18.661Z,977.88
2019-03-15T07:08:18.599Z,977.84
2019-03-15T07:09:18.535Z,977.89
2019-03-15T07:10:18.477Z,977.85
2019-03-15T07:11:18.416Z,977.81
2019-03-15T07:12:18.356Z,977.89
2019-03-15T07:13:18.299Z,977.88
2019-03-15T07:14:18.239Z,977.87
2019-03-15T07:15:18.178Z,977.90
2019-03-15T07:16:18.118Z,977.89
2019-03-15T07:17:18.057Z,977.88
2019-03-15T07:18:18.759Z,977.88
2019-03-15T07:19:27.387Z,977.86
2019-03-15T07:20:17.879Z,977.91
2019-03-15T07:21:17.817Z,977.93
2019-03-15T07:22:19.971Z,977.89
2019-03-15T07:23:17.700Z,977.91
2019-03-15T07:24:24.929Z,977.95
2019-03-15T07:25:17.579Z,977.89
2019-03-15T07:26:17.519Z,977.88
2019-03-15T07:27:17.461Z,977.90
2019-03-15T07:28:17.401Z,977.87
2019-03-15T07:29:18.975Z,977.88
2019-03-15T07:30:17.297Z,977.80
2019-03-15T07:31:17.222Z,977.80
2019-03-15T07:32:17.161Z,977.88
2019-03-15T07:33:17.101Z,977.82
2019-03-15T07:34:17.040Z,977.85
2019-03-15T07:35:16.980Z,977.81
2019-03-15T07:36:16.921Z,977.76
2019-03-15T07:37:16.859Z,977.72
2019-03-15T07:38:16.801Z,977.76
2019-03-15T07:39:16.740Z,977.77
2019-03-15T07:40:16.681Z,977.76
2019-03-15T07:41:16.621Z,977.73
2019-03-15T07:42:16.560Z,977.79
2019-03-15T07:43:16.502Z,977.76
2019-03-15T07:44:16.441Z,977.72
2019-03-15T07:45:16.380Z,977.74
2019-03-15T07:46:16.324Z,977.75
2019-03-15T07:47:16.262Z,977.73
2019-03-15T07:48:22.250Z,977.70
2019-03-15T07:49:16.144Z,977.68
2019-03-15T07:50:16.081Z,977.62
2019-03-15T07:51:16.022Z,977.68
2019-03-15T07:52:15.962Z,977.67
2019-03-15T07:53:15.901Z,977.67
2019-03-15T07:54:15.841Z,977.61
2019-03-15T07:55:15.781Z,977.60
2019-03-15T07:56:15.721Z,977.60
2019-03-15T07:57:15.663Z,977.58
2019-03-15T07:58:15.602Z,977.61
2019-03-15T07:59:15.547Z,977.56
2019-03-15T08:00:15.485Z,977.55
2019-03-15T08:01:15.429Z,977.51
2019-03-15T08:02:15.365Z,977.50
2019-03-15T08:03:15.303Z,977.50
2019-03-15T08:04:17.422Z,977.50
2019-03-15T08:05:15.187Z,977.48
2019-03-15T08:06:15.123Z,977.51
2019-03-15T08:07:15.062Z,977.48
2019-03-15T08:08:15.003Z,977.44
2019-03-15T08:09:14.947Z,977.40
2019-03-15T08:10:14.884Z,977.40
2019-03-15T08:11:14.826Z,977.41
2019-03-15T08:12:14.763Z,977.32
2019-03-15T08:13:14.704Z,977.37
2019-03-15T08:14:14.643Z,977.43
2019-03-15T08:15:14.585Z,977.37
2019-03-15T08:16:14.523Z,977.31
2019-03-15T08:17:14.489Z,977.30
2019-03-15T08:18:14.404Z,977.29
2019-03-15T08:19:14.345Z,977.26
2019-03-15T08:20:14.287Z,977.24
2019-03-15T08:21:14.225Z,977.25
2019-03-15T08:22:14.237Z,977.28
2019-03-15T08:23:14.106Z,977.28
2019-03-15T08:24:14.047Z,977.29
2019-03-15T08:25:13.987Z,977.26
2019-03-15T08:26:13.928Z,977.22
2019-03-15T08:27:16.107Z,977.22
2019-03-15T08:28:13.807Z,977.25
2019-03-15T08:29:13.750Z,977.23
2019-03-15T08:30:13.686Z,977.18
2019-03-15T08:31:13.626Z,977.12
2019-03-15T08:32:13.567Z,977.09
2019-03-15T08:33:13.509Z,977.04
2019-03-15T08:34:13.450Z,977.04
2019-03-15T08:35:13.391Z,977.01
2019-03-15T08:36:13.327Z,976.98
2019-03-15T08:37:13.269Z,976.98
2019-03-15T08:38:13.207Z,976.92
2019-03-15T08:39:13.149Z,976.88
2019-03-15T08:40:13.093Z,976.91
2019-03-15T08:41:13.028Z,976.87
2019-03-15T08:42:12.969Z,976.85
2019-03-15T08:43:12.910Z,976.88
2019-03-15T08:44:12.848Z,976.90
2019-03-15T08:45:12.793Z,976.88
2019-03-15T08:46:12.729Z,976.94
2019-03-15T08:47:12.672Z,976.89
2019-03-15T08:48:12.608Z,976.86
2019-03-15T08:49:12.550Z,976.89
2019-03-15T08:50:14.992Z,976.82
2019-03-15T08:51:12.430Z,976.84
2019-03-15T08:52:12.369Z,976.88
2019-03-15T08:53:12.312Z,976.91
2019-03-15T08:54:12.251Z,976.94
2019-03-15T08:55:12.191Z,976.98
2019-03-15T08:56:14.527Z,976.96
2019-03-15T08:57:12.070Z,976.91
2019-03-15T08:58:15.826Z,976.92
2019-03-15T08:59:11.950Z,976.98
2019-03-15T09:00:11.891Z,976.88
2019-03-15T09:01:11.831Z,976.98
2019-03-15T09:02:11.774Z,977.07
2019-03-15T09:03:11.712Z,976.98
2019-03-15T09:04:11.651Z,976.91
2019-03-15T09:05:11.598Z,976.87
2019-03-15T09:06:11.531Z,976.84
2019-03-15T09:07:11.472Z,976.80
2019-03-15T09:08:11.412Z,976.85
2019-03-15T09:09:11.352Z,976.81
2019-03-15T09:10:21.924Z,976.79
2019-03-15T09:11:11.234Z,976.78
2019-03-15T09:12:11.185Z,976.77
2019-03-15T09:13:11.113Z,976.72
2019-03-15T09:14:11.054Z,976.70
2019-03-15T09:15:10.994Z,976.63
2019-03-15T09:16:10.935Z,976.66
2019-03-15T09:17:10.874Z,976.67
2019-03-15T09:18:10.820Z,976.61
2019-03-15T09:19:10.755Z,976.65
2019-03-15T09:20:10.696Z,976.58
2019-03-15T09:21:10.650Z,976.59
2019-03-15T09:22:10.577Z,976.56
2019-03-15T09:23:10.515Z,976.57
2019-03-15T09:24:10.456Z,976.55
2019-03-15T09:25:19.084Z,976.53
2019-03-15T09:26:10.724Z,976.52
2019-03-15T09:27:10.746Z,976.53
2019-03-15T09:28:10.215Z,976.52
2019-03-15T09:29:10.156Z,976.47
2019-03-15T09:30:22.475Z,976.41
2019-03-15T09:31:10.037Z,976.46
2019-03-15T09:32:09.976Z,976.49
2019-03-15T09:33:09.919Z,976.49
2019-03-15T09:34:09.859Z,976.40
2019-03-15T09:35:09.801Z,976.39
2019-03-15T09:36:09.740Z,976.45
2019-03-15T09:37:09.678Z,976.42
2019-03-15T09:38:10.630Z,976.48
2019-03-15T09:39:09.631Z,976.42
2019-03-15T09:40:09.501Z,976.44
2019-03-15T09:41:09.445Z,976.43
2019-03-15T09:42:09.380Z,976.42
2019-03-15T09:43:09.319Z,976.48
2019-03-15T09:44:09.264Z,976.42
2019-03-15T09:45:09.257Z,976.37
2019-03-15T09:46:09.140Z,976.46
2019-03-15T09:47:09.082Z,976.45
2019-03-15T09:48:09.020Z,976.47
2019-03-15T09:49:08.981Z,976.49
2019-03-15T09:50:21.531Z,976.44
2019-03-15T09:51:08.840Z,976.42
2019-03-15T09:52:08.782Z,976.40
2019-03-15T09:53:08.721Z,976.33
2019-03-15T09:54:08.662Z,976.32
2019-03-15T09:55:08.605Z,976.37
2019-03-15T09:56:08.541Z,976.42
2019-03-15T09:57:08.483Z,976.38
2019-03-15T09:58:08.426Z,976.40
2019-03-15T09:59:08.362Z,976.39
2019-03-15T10:00:08.303Z,976.40
2019-03-15T10:01:08.895Z,976.33
2019-03-15T10:02:08.186Z,976.28
2019-03-15T10:03:21.204Z,976.25
2019-03-15T10:04:08.063Z,976.25
2019-03-15T10:05:11.318Z,976.36
2019-03-15T10:06:14.828Z,976.42
2019-03-15T10:07:07.916Z,976.49
2019-03-15T10:08:07.826Z,976.44
2019-03-15T10:09:07.768Z,976.41
2019-03-15T10:10:13.530Z,976.34
2019-03-15T10:11:07.647Z,976.35
2019-03-15T10:12:07.586Z,976.23
2019-03-15T10:13:07.528Z,976.15
2019-03-15T10:14:07.466Z,976.11
2019-03-15T10:15:08.110Z,976.21
2019-03-15T10:16:07.347Z,976.34
2019-03-15T10:17:07.287Z,976.29
2019-03-15T10:18:07.227Z,976.34
2019-03-15T10:19:07.168Z,976.31
2019-03-15T10:20:07.113Z,976.31
2019-03-15T10:21:09.367Z,976.24
2019-03-15T10:22:06.988Z,976.29
2019-03-15T10:23:06.930Z,976.26
2019-03-15T10:24:06.874Z,976.25
2019-03-15T10:25:06.809Z,976.19
2019-03-15T10:26:06.749Z,976.24
2019-03-15T10:27:06.689Z,976.26
2019-03-15T10:28:06.630Z,976.32
2019-03-15T10:29:15.404Z,976.29
2019-03-15T10:30:06.511Z,976.34
2019-03-15T10:31:06.454Z,976.32
2019-03-15T10:32:06.391Z,976.26
2019-03-15T10:33:06.333Z,976.33
2019-03-15T10:34:06.272Z,976.38
2019-03-15T10:35:06.213Z,976.47
2019-03-15T10:36:06.152Z,976.45
2019-03-15T10:37:06.428Z,976.46
2019-03-15T10:38:06.032Z,976.40
2019-03-15T10:39:05.975Z,976.31
2019-03-15T10:40:05.912Z,976.32
2019-03-15T10:41:05.854Z,976.18
2019-03-15T10:42:05.795Z,976.24
2019-03-15T10:43:05.738Z,976.25
2019-03-15T10:44:05.674Z,976.28
2019-03-15T10:45:05.615Z,976.31
2019-03-15T10:46:06.321Z,976.33
2019-03-15T10:47:05.495Z,976.34
2019-03-15T10:48:08.115Z,976.33
2019-03-15T10:49:05.376Z,976.33
2019-03-15T10:50:05.321Z,976.37
2019-03-15T10:51:05.257Z,976.40
2019-03-15T10:52:05.196Z,976.41
2019-03-15T10:53:05.138Z,976.27
2019-03-15T10:54:05.095Z,976.36
2019-03-15T10:55:05.017Z,976.26
2019-03-15T10:56:04.961Z,976.27
2019-03-15T10:57:04.904Z,976.36
2019-03-15T10:58:04.840Z,976.41
2019-03-15T10:59:04.785Z,976.30
2019-03-15T11:00:04.719Z,976.31
2019-03-15T11:01:04.659Z,976.30
2019-03-15T11:02:04.605Z,976.37
2019-03-15T11:03:04.542Z,976.41
2019-03-15T11:04:04.512Z,976.40
2019-03-15T11:05:04.421Z,976.32
2019-03-15T11:06:04.363Z,976.44
2019-03-15T11:07:04.305Z,976.44
2019-03-15T11:08:04.245Z,976.47
2019-03-15T11:09:04.182Z,976.46
2019-03-15T11:10:04.123Z,976.35
2019-03-15T11:11:04.065Z,976.36
2019-03-15T11:12:04.005Z,976.41
2019-03-15T11:13:03.947Z,976.46
2019-03-15T11:14:03.885Z,976.50
2019-03-15T11:15:03.825Z,976.44
2019-03-15T11:16:03.774Z,976.49
2019-03-15T11:17:03.711Z,976.57
2019-03-15T11:18:03.647Z,976.46
2019-03-15T11:19:03.589Z,976.50
2019-03-15T11:20:03.534Z,976.49
2019-03-15T11:21:03.469Z,976.48
2019-03-15T11:22:03.409Z,976.57
2019-03-15T11:23:03.347Z,976.51
2019-03-15T11:24:03.289Z,976.52
2019-03-15T11:25:03.230Z,976.54
2019-03-15T11:26:13.130Z,976.63
2019-03-15T11:27:03.110Z,976.54
2019-03-15T11:28:03.050Z,976.57
2019-03-15T11:29:02.992Z,976.61
2019-03-15T11:30:02.932Z,976.57
2019-03-15T11:31:02.871Z,976.58
2019-03-15T11:32:02.821Z,976.58
2019-03-15T11:33:02.755Z,976.56
2019-03-15T11:34:02.694Z,976.59
2019-03-15T11:35:02.633Z,976.59
2019-03-15T11:36:02.573Z,976.48
2019-03-15T11:37:03.612Z,976.55
2019-03-15T11:38:02.460Z,976.59
2019-03-15T11:39:02.394Z,976.61
2019-03-15T11:40:02.335Z,976.55
2019-03-15T11:41:02.281Z,976.58
2019-03-15T11:42:02.218Z,976.48
2019-03-15T11:43:02.155Z,976.50
2019-03-15T11:44:02.097Z,976.53
2019-03-15T11:45:02.042Z,976.58
2019-03-15T11:46:01.981Z,976.52
2019-03-15T11:47:02.050Z,976.59
2019-03-15T11:48:04.120Z,976.55
2019-03-15T11:49:01.799Z,976.55
2019-03-15T11:50:01.756Z,976.56
2019-03-15T11:51:01.684Z,976.57
2019-03-15T11:52:01.620Z,976.47
2019-03-15T11:53:01.560Z,976.62
2019-03-15T11:54:01.501Z,976.61
2019-03-15T11:55:01.442Z,976.58
2019-03-15T11:56:01.381Z,976.59
2019-03-15T11:57:01.323Z,976.58
2019-03-15T11:58:01.263Z,976.69
2019-03-15T11:59:01.204Z,976.64
2019-03-15T12:00:01.145Z,976.61
2019-03-15T12:01:01.089Z,976.48
2019-03-15T12:02:04.365Z,976.69
2019-03-15T12:03:00.965Z,976.63
2019-03-15T12:04:00.909Z,976.65
2019-03-15T12:05:00.847Z,976.64
2019-03-15T12:06:00.785Z,976.54
2019-03-15T12:07:00.727Z,976.64
2019-03-15T12:08:00.666Z,976.63
2019-03-15T12:09:00.608Z,976.55
2019-03-15T12:10:00.549Z,976.65
2019-03-15T12:11:00.489Z,976.70
2019-03-15T12:12:00.429Z,976.71
2019-03-15T12:13:00.464Z,976.64
2019-03-15T12:14:00.310Z,976.72
2019-03-15T12:15:00.305Z,976.61
2019-03-15T12:16:00.191Z,976.77
2019-03-15T12:17:00.134Z,976.72
2019-03-15T12:18:00.081Z,976.74
2019-03-15T12:19:00.013Z,976.74
2019-03-15T12:19:59.960Z,976.63
2019-03-15T12:20:59.894Z,976.68
2019-03-15T12:22:06.324Z,976.75
2019-03-15T12:22:59.778Z,976.72
2019-03-15T12:23:59.718Z,976.72
2019-03-15T12:24:59.655Z,976.69
2019-03-15T12:25:59.596Z,976.65
2019-03-15T12:26:59.537Z,976.72
2019-03-15T12:27:59.477Z,976.70